Time;durP1;ratioP1;P1;durP2;ratioP2;P2;SDS_P1;SDS_P2;PMS_P1;PMS_P2;Temp;Humidity;BMP_temperature;BMP_pressure;BME280_temperature;BME280_humidity;BME280_pressure;Samples;Min_cycle;Max_cycle;Signal;HPM_P1;HPM_P2
2024/01/10 00:02:06;;;;;;;14.32;8.27;;;-3273.10;72.40;;;;;;5015122;28;20101;-81
2024/01/10 00:04:31;;;;;;;17.80;8.95;;;-3273.10;72.50;;;;;;5018539;28;20164;-81
2024/01/10 00:06:57;;;;;;;14.38;7.68;;;-3273.10;72.60;;;;;;5020780;28;20124;-85
2024/01/10 00:09:23;;;;;;;15.15;8.80;;;-3273.10;72.60;;;;;;5013486;28;20030;-84
2024/01/10 00:11:48;;;;;;;15.15;8.95;;;-3273.10;72.70;;;;;;5022335;28;20517;-79
2024/01/10 00:14:14;;;;;;;15.52;8.57;;;-3273.10;72.80;;;;;;5021978;28;20746;-79
2024/01/10 00:16:40;;;;;;;16.27;9.48;;;-3273.00;72.90;;;;;;5017879;28;20041;-79
2024/01/10 00:19:06;;;;;;;15.20;8.45;;;-3273.10;73.00;;;;;;5012322;28;20028;-85
2024/01/10 00:21:32;;;;;;;15.73;8.75;;;-3273.10;73.00;;;;;;5012153;28;20033;-81
2024/01/10 00:23:57;;;;;;;14.70;8.23;;;-3273.00;73.10;;;;;;5013616;28;20037;-84
2024/01/10 00:26:23;;;;;;;16.35;8.52;;;-3273.10;73.00;;;;;;5005477;28;20026;-84
2024/01/10 00:28:49;;;;;;;15.25;8.27;;;-3273.00;73.10;;;;;;5006765;28;20499;-83
2024/01/10 00:31:15;;;;;;;16.08;8.43;;;-3273.00;73.20;;;;;;5013485;28;20272;-80
2024/01/10 00:33:40;;;;;;;14.45;8.00;;;-3273.00;73.40;;;;;;5013246;28;20057;-82
2024/01/10 00:36:06;;;;;;;15.32;8.07;;;-3273.00;73.40;;;;;;5016380;28;20454;-78
2024/01/10 00:38:32;;;;;;;13.63;7.90;;;-3273.00;73.40;;;;;;5029542;28;20061;-79
2024/01/10 00:40:58;;;;;;;15.75;9.40;;;-3273.00;73.40;;;;;;5014924;28;20022;-84
2024/01/10 00:43:24;;;;;;;15.25;8.25;;;-3272.90;73.50;;;;;;5015396;28;20053;-80
2024/01/10 00:45:50;;;;;;;16.08;8.70;;;-3272.90;73.60;;;;;;5015058;28;20030;-85
2024/01/10 00:48:19;;;;;;;14.82;8.35;;;-3273.00;73.60;;;;;;5012860;28;20040;-81
2024/01/10 00:50:45;;;;;;;18.52;8.35;;;-3272.90;73.70;;;;;;5012261;28;20152;-85
2024/01/10 00:53:10;;;;;;;15.77;8.13;;;-3272.80;73.80;;;;;;5009696;28;20371;-82
2024/01/10 00:55:36;;;;;;;15.73;9.05;;;-3272.80;74.00;;;;;;5014238;28;20044;-81
2024/01/10 00:58:02;;;;;;;16.25;8.95;;;-3272.90;73.90;;;;;;5014833;28;20216;-82
2024/01/10 01:00:28;;;;;;;15.38;8.40;;;-3272.90;74.00;;;;;;5036027;28;20116;-82
2024/01/10 01:02:53;;;;;;;15.35;9.00;;;-3272.90;74.00;;;;;;5039770;28;20159;-79
2024/01/10 01:05:19;;;;;;;16.33;8.73;;;-3272.90;74.00;;;;;;5038536;28;20022;-82
2024/01/10 01:07:44;;;;;;;16.52;8.73;;;-3272.90;73.90;;;;;;5020980;28;20041;-85
2024/01/10 01:10:10;;;;;;;17.60;10.32;;;-3272.90;74.00;;;;;;5018347;28;20287;-83
2024/01/10 01:12:36;;;;;;;17.80;9.32;;;-3272.90;74.20;;;;;;5028180;28;20113;-81
2024/01/10 01:15:02;;;;;;;16.15;9.20;;;-3272.80;74.20;;;;;;5025501;28;20175;-79
2024/01/10 01:17:27;;;;;;;17.60;9.88;;;-3272.90;74.20;;;;;;5027653;28;20037;-81
2024/01/10 01:19:54;;;;;;;19.77;10.82;;;-3272.90;74.30;;;;;;5025544;28;20022;-83
2024/01/10 01:22:19;;;;;;;18.63;10.63;;;-3272.90;74.20;;;;;;5024114;28;20123;-78
2024/01/10 01:24:45;;;;;;;19.92;10.82;;;-3272.90;74.20;;;;;;5019212;28;20033;-78
2024/01/10 01:27:11;;;;;;;18.05;10.25;;;-3272.90;74.20;;;;;;5029781;28;20060;-79
2024/01/10 01:29:36;;;;;;;19.70;10.80;;;-3272.90;74.20;;;;;;5019102;28;20014;-85
2024/01/10 01:32:02;;;;;;;17.50;10.57;;;-3272.80;74.10;;;;;;5018006;28;20029;-85
2024/01/10 01:34:28;;;;;;;23.33;12.38;;;-3272.80;74.20;;;;;;5014185;28;20545;-82
2024/01/10 01:36:53;;;;;;;19.67;11.88;;;-3272.80;74.30;;;;;;5028885;28;20174;-81
2024/01/10 01:39:19;;;;;;;20.05;10.98;;;-3272.80;74.20;;;;;;5023687;28;20482;-81
2024/01/10 01:41:45;;;;;;;20.30;11.60;;;-3272.80;74.20;;;;;;5027094;28;20316;-85
2024/01/10 01:44:10;;;;;;;20.00;11.23;;;-3272.80;74.20;;;;;;5034201;28;20393;-85
2024/01/10 01:46:36;;;;;;;18.83;11.32;;;-3272.80;74.30;;;;;;5018353;28;20405;-80
2024/01/10 01:49:03;;;;;;;19.15;11.18;;;-3272.80;74.40;;;;;;5019077;28;20026;-81
2024/01/10 01:51:31;;;;;;;20.30;11.02;;;-3272.80;74.50;;;;;;5015214;28;20198;-81
2024/01/10 01:53:57;;;;;;;20.10;11.98;;;-3272.80;74.60;;;;;;5019696;28;20072;-79
2024/01/10 01:56:24;;;;;;;21.33;11.45;;;-3272.70;74.80;;;;;;5013200;28;20029;-78
2024/01/10 01:58:51;;;;;;;19.98;11.13;;;-3272.70;74.90;;;;;;5008766;28;20034;-82
2024/01/10 02:01:20;;;;;;;22.77;11.50;;;-3272.70;74.90;;;;;;5023083;28;20139;-79
2024/01/10 02:03:45;;;;;;;19.77;11.38;;;-3272.70;74.90;;;;;;5010913;28;20030;-85
2024/01/10 02:06:12;;;;;;;19.70;10.90;;;-3272.60;75.00;;;;;;5029471;28;20251;-84
2024/01/10 02:08:37;;;;;;;22.17;12.13;;;-3272.70;75.20;;;;;;5015153;28;20038;-82
2024/01/10 02:11:04;;;;;;;18.63;11.73;;;-3272.60;75.10;;;;;;5015676;28;20041;-83
2024/01/10 02:13:32;;;;;;;19.23;11.07;;;-3272.60;75.10;;;;;;5017114;28;20924;-84
2024/01/10 02:15:58;;;;;;;21.85;12.05;;;-3272.60;75.20;;;;;;5020868;28;20032;-84
2024/01/10 02:18:24;;;;;;;20.63;11.75;;;-3272.50;75.20;;;;;;5010382;28;20030;-82
2024/01/10 02:20:50;;;;;;;21.52;11.32;;;-3272.60;75.40;;;;;;5020348;28;20333;-85
2024/01/10 02:23:16;;;;;;;19.33;12.18;;;-3272.50;75.60;;;;;;5020470;28;20434;-85
2024/01/10 02:25:42;;;;;;;19.33;11.75;;;-3272.50;75.70;;;;;;5019920;28;20013;-84
2024/01/10 02:28:09;;;;;;;18.05;10.82;;;-3272.50;75.80;;;;;;5014498;28;20472;-84
2024/01/10 02:30:35;;;;;;;18.58;11.70;;;-3272.40;76.00;;;;;;5020983;28;20026;-81
2024/01/10 02:33:01;;;;;;;17.42;11.27;;;-3272.40;76.20;;;;;;5019105;28;20148;-84
2024/01/10 02:35:27;;;;;;;22.73;11.15;;;-3272.40;76.20;;;;;;5020282;28;20489;-86
2024/01/10 02:37:54;;;;;;;21.92;11.23;;;-3272.40;76.30;;;;;;5015046;28;20127;-82
2024/01/10 02:40:20;;;;;;;19.90;12.18;;;-3272.30;76.40;;;;;;5016966;28;20021;-82
2024/01/10 02:42:45;;;;;;;17.50;10.15;;;-3272.30;76.40;;;;;;5018761;28;20390;-85
2024/01/10 02:45:11;;;;;;;17.88;10.80;;;-3272.30;76.40;;;;;;5019750;28;20041;-83
2024/01/10 02:47:37;;;;;;;19.17;10.98;;;-3272.30;76.40;;;;;;5020593;28;20021;-83
2024/01/10 02:50:04;;;;;;;18.02;10.30;;;-3272.20;76.40;;;;;;5020572;28;20661;-84
2024/01/10 02:52:30;;;;;;;17.40;10.23;;;-3272.30;76.50;;;;;;5017076;28;20045;-84
2024/01/10 02:54:56;;;;;;;20.10;10.68;;;-3272.30;76.60;;;;;;5014641;28;20502;-77
2024/01/10 02:57:21;;;;;;;19.95;11.02;;;-3272.20;76.60;;;;;;5021095;28;20039;-83
2024/01/10 02:59:47;;;;;;;18.65;10.43;;;-3272.10;76.80;;;;;;5015349;28;20047;-84
2024/01/10 03:02:12;;;;;;;21.60;11.95;;;-3272.10;77.00;;;;;;5019823;28;20463;-86
2024/01/10 03:04:38;;;;;;;18.70;10.57;;;-3272.10;77.10;;;;;;5019073;28;20136;-85
2024/01/10 03:07:04;;;;;;;18.10;10.77;;;-3272.10;77.20;;;;;;5021015;28;20021;-81
2024/01/10 03:09:29;;;;;;;18.58;10.30;;;-3272.10;77.10;;;;;;5027715;28;20038;-81
2024/01/10 03:11:55;;;;;;;22.67;10.93;;;-3272.10;77.10;;;;;;5018061;28;20105;-80
2024/01/10 03:14:22;;;;;;;21.13;10.40;;;-3272.10;77.10;;;;;;5016754;28;20046;-83
2024/01/10 03:16:47;;;;;;;20.15;10.70;;;-3272.00;77.40;;;;;;5018461;28;20026;-81
2024/01/10 03:19:13;;;;;;;18.40;10.50;;;-3272.00;77.60;;;;;;5019837;28;20037;-77
2024/01/10 03:21:39;;;;;;;16.60;9.55;;;-3272.00;77.60;;;;;;5018301;28;20033;-85
2024/01/10 03:24:05;;;;;;;19.15;10.25;;;-3272.00;77.50;;;;;;5015673;28;20091;-84
2024/01/10 03:26:31;;;;;;;16.77;9.85;;;-3272.00;77.50;;;;;;5016867;28;20476;-78
2024/01/10 03:28:57;;;;;;;24.75;10.40;;;-3272.00;77.70;;;;;;5012649;28;20029;-84
2024/01/10 03:31:23;;;;;;;17.98;10.57;;;-3272.00;77.70;;;;;;5011320;28;20025;-81
2024/01/10 03:33:48;;;;;;;20.67;10.10;;;-3271.90;77.80;;;;;;5022289;28;20048;-85
2024/01/10 03:36:16;;;;;;;19.10;10.32;;;-3271.90;77.90;;;;;;5017059;28;20577;-83
2024/01/10 03:38:43;;;;;;;16.25;9.85;;;-3271.90;77.90;;;;;;5021611;28;20092;-86
2024/01/10 03:41:18;;;;;;;16.67;9.07;;;-3271.90;77.90;;;;;;5011976;28;20044;-83
2024/01/10 03:43:44;;;;;;;17.30;10.20;;;-3271.80;77.90;;;;;;5019946;28;20128;-78
2024/01/10 03:46:10;;;;;;;18.73;9.25;;;-3271.90;77.90;;;;;;5027089;28;20049;-82
2024/01/10 03:48:37;;;;;;;17.52;10.27;;;-3271.80;77.90;;;;;;5019398;28;20025;-82
2024/01/10 03:51:02;;;;;;;18.25;10.48;;;-3271.80;77.90;;;;;;5025103;28;20013;-84
2024/01/10 03:53:28;;;;;;;16.83;9.63;;;-3271.80;78.10;;;;;;5033486;28;20032;-82
2024/01/10 03:55:54;;;;;;;17.75;8.65;;;-3271.80;78.10;;;;;;5028708;28;20033;-79
2024/01/10 03:58:20;;;;;;;18.35;9.65;;;-3271.80;78.10;;;;;;5011010;28;20053;-83
2024/01/10 04:00:46;;;;;;;16.38;9.88;;;-3271.80;78.20;;;;;;5014127;28;20032;-84
2024/01/10 04:03:11;;;;;;;16.48;9.15;;;-3271.80;78.20;;;;;;5012798;28;20033;-82
2024/01/10 04:05:37;;;;;;;14.70;9.18;;;-3271.80;78.20;;;;;;5018957;28;20087;-85
2024/01/10 04:08:03;;;;;;;16.23;9.50;;;-3271.70;78.30;;;;;;5024562;28;20083;-77
2024/01/10 04:10:29;;;;;;;17.05;9.73;;;-3271.70;78.30;;;;;;5017678;28;20462;-83
2024/01/10 04:12:54;;;;;;;20.48;9.93;;;-3271.70;78.30;;;;;;5014665;28;20123;-84
2024/01/10 04:15:20;;;;;;;17.85;9.45;;;-3271.70;78.50;;;;;;5033669;28;20022;-84
2024/01/10 04:17:46;;;;;;;14.85;8.77;;;-3271.70;78.40;;;;;;5039824;28;20036;-77
2024/01/10 04:20:12;;;;;;;16.60;8.50;;;-3271.60;78.40;;;;;;5035048;28;20006;-76
2024/01/10 04:22:37;;;;;;;17.00;9.15;;;-3271.70;78.40;;;;;;5028131;28;20140;-83
2024/01/10 04:25:06;;;;;;;16.70;8.88;;;-3271.70;78.30;;;;;;5015493;28;20029;-78
2024/01/10 04:27:31;;;;;;;17.98;8.57;;;-3271.70;78.40;;;;;;5034726;28;20064;-82
2024/01/10 04:29:57;;;;;;;15.93;9.15;;;-3271.70;78.40;;;;;;5015939;28;20537;-84
2024/01/10 04:32:23;;;;;;;15.00;9.05;;;-3271.70;78.40;;;;;;5016665;28;20045;-84
2024/01/10 04:34:48;;;;;;;14.70;8.73;;;-3271.70;78.30;;;;;;5038069;28;20389;-85
2024/01/10 04:37:14;;;;;;;17.45;9.07;;;-3271.60;78.40;;;;;;5023185;28;20409;-85
2024/01/10 04:39:42;;;;;;;18.20;9.07;;;-3271.60;78.50;;;;;;5033755;28;20390;-82
2024/01/10 04:42:10;;;;;;;18.40;9.32;;;-3271.70;78.50;;;;;;5023132;28;20679;-81
2024/01/10 04:44:36;;;;;;;17.10;9.82;;;-3271.70;78.50;;;;;;5022238;28;20061;-79
2024/01/10 04:47:01;;;;;;;17.92;9.07;;;-3271.70;78.40;;;;;;5022209;28;20060;-84
2024/01/10 04:49:27;;;;;;;17.25;9.68;;;-3271.70;78.40;;;;;;5032508;28;20014;-77
2024/01/10 04:51:53;;;;;;;18.40;9.75;;;-3271.70;78.30;;;;;;5050934;28;20040;-77
2024/01/10 04:54:18;;;;;;;15.55;8.80;;;-3271.60;78.40;;;;;;5050312;28;20033;-80
2024/01/10 04:56:44;;;;;;;17.23;9.23;;;-3271.70;78.40;;;;;;5029271;28;20494;-82
2024/01/10 04:59:10;;;;;;;16.02;9.32;;;-3271.60;78.30;;;;;;5023765;28;20034;-80
2024/01/10 05:01:36;;;;;;;20.13;10.38;;;-3271.70;78.20;;;;;;5026789;28;20029;-78
2024/01/10 05:04:02;;;;;;;19.83;10.02;;;-3271.70;78.30;;;;;;5015815;28;20121;-84
2024/01/10 05:06:28;;;;;;;17.23;10.50;;;-3271.70;78.30;;;;;;5022938;28;20496;-85
2024/01/10 05:08:57;;;;;;;15.63;9.52;;;-3271.60;78.20;;;;;;5024896;28;20029;-84
2024/01/10 05:11:24;;;;;;;18.20;10.82;;;-3271.70;78.20;;;;;;5046994;28;20005;-78
2024/01/10 05:13:50;;;;;;;18.35;10.80;;;-3271.70;78.40;;;;;;5040497;28;20033;-76
2024/01/10 05:16:16;;;;;;;17.77;9.65;;;-3271.70;78.20;;;;;;5037882;28;20029;-78
2024/01/10 05:18:41;;;;;;;16.58;9.38;;;-3271.70;78.10;;;;;;5044995;28;20234;-76
2024/01/10 05:21:07;;;;;;;17.10;10.05;;;-3271.70;78.10;;;;;;5033036;28;20098;-83
2024/01/10 05:23:32;;;;;;;17.55;9.40;;;-3271.70;78.20;;;;;;5023251;28;20041;-78
2024/01/10 05:25:58;;;;;;;16.85;9.38;;;-3271.70;78.00;;;;;;5038392;28;20452;-85
2024/01/10 05:28:24;;;;;;;18.33;10.52;;;-3271.80;77.90;;;;;;5017872;28;20041;-83
2024/01/10 05:30:50;;;;;;;19.88;10.77;;;-3271.80;77.80;;;;;;5019558;28;20025;-84
2024/01/10 05:33:15;;;;;;;19.05;9.70;;;-3271.80;77.70;;;;;;5018535;28;20038;-84
2024/01/10 05:35:42;;;;;;;17.75;9.23;;;-3271.80;77.70;;;;;;5016143;28;20049;-82
2024/01/10 05:38:07;;;;;;;17.20;10.13;;;-3271.80;77.50;;;;;;5014961;28;20057;-81
2024/01/10 05:40:33;;;;;;;15.27;8.90;;;-3271.80;77.40;;;;;;5022144;28;20021;-83
2024/01/10 05:43:02;;;;;;;16.40;8.80;;;-3271.80;77.40;;;;;;5018599;28;20109;-79
2024/01/10 05:45:28;;;;;;;16.45;9.45;;;-3271.80;77.30;;;;;;5024372;28;20441;-82
2024/01/10 05:47:54;;;;;;;19.73;10.32;;;-3271.80;77.50;;;;;;5016359;28;20061;-81
2024/01/10 05:50:20;;;;;;;18.58;10.50;;;-3271.80;77.50;;;;;;5022425;28;21069;-83
2024/01/10 05:52:46;;;;;;;19.30;10.40;;;-3271.80;77.60;;;;;;5023214;28;20386;-83
2024/01/10 05:55:12;;;;;;;18.83;10.30;;;-3271.80;77.60;;;;;;5018320;28;20021;-83
2024/01/10 05:57:38;;;;;;;18.50;10.35;;;-3271.70;77.70;;;;;;5014167;28;20038;-83
2024/01/10 06:00:09;;;;;;;16.80;9.57;;;-3271.70;77.80;;;;;;5018471;28;20033;-78
2024/01/10 06:02:41;;;;;;;16.27;10.20;;;-3271.70;77.90;;;;;;5017895;28;20021;-78
2024/01/10 06:05:08;;;;;;;15.88;9.50;;;-3271.70;77.90;;;;;;5015657;28;20125;-83
2024/01/10 06:07:37;;;;;;;15.93;9.30;;;-3271.80;77.90;;;;;;5022758;28;20052;-81
2024/01/10 06:10:03;;;;;;;20.73;10.25;;;-3271.80;77.80;;;;;;5025179;28;20559;-78
2024/01/10 06:12:29;;;;;;;18.13;10.52;;;-3271.80;77.70;;;;;;5014067;28;20017;-77
2024/01/10 06:14:54;;;;;;;17.17;10.15;;;-3271.80;77.80;;;;;;5025075;28;20043;-85
2024/01/10 06:17:21;;;;;;;17.83;9.82;;;-3271.80;77.80;;;;;;5021856;28;20497;-80
2024/01/10 06:19:47;;;;;;;18.55;10.52;;;-3271.70;77.90;;;;;;5020726;28;20051;-84
2024/01/10 06:22:13;;;;;;;20.08;11.40;;;-3271.70;78.00;;;;;;5014264;28;20029;-84
2024/01/10 06:24:38;;;;;;;19.63;12.00;;;-3271.70;78.10;;;;;;5021601;28;20033;-83
2024/01/10 06:27:05;;;;;;;18.40;10.88;;;-3271.70;78.00;;;;;;5020177;28;20018;-84
2024/01/10 06:29:32;;;;;;;15.73;9.02;;;-3271.70;78.00;;;;;;5014862;28;20080;-84
2024/01/10 06:31:57;;;;;;;16.88;9.25;;;-3271.70;77.90;;;;;;5006766;28;20323;-83
2024/01/10 06:34:24;;;;;;;15.68;8.35;;;-3271.70;77.80;;;;;;5015201;28;20054;-81
2024/01/10 06:36:49;;;;;;;22.80;9.20;;;-3271.70;77.60;;;;;;5018071;28;20083;-79
2024/01/10 06:39:16;;;;;;;18.20;9.27;;;-3271.70;77.70;;;;;;5018810;28;20033;-82
2024/01/10 06:41:42;;;;;;;16.42;8.95;;;-3271.70;77.60;;;;;;5013275;28;20048;-84
2024/01/10 06:44:08;;;;;;;13.43;7.95;;;-3271.70;77.70;;;;;;5019991;28;20116;-85
2024/01/10 06:46:34;;;;;;;16.17;8.70;;;-3271.70;77.70;;;;;;5015135;28;20029;-82
2024/01/10 06:49:00;;;;;;;16.85;9.40;;;-3271.70;77.50;;;;;;5022601;28;20553;-84
2024/01/10 06:51:26;;;;;;;15.23;8.32;;;-3271.80;77.30;;;;;;5032939;28;20022;-81
2024/01/10 06:53:52;;;;;;;17.55;10.38;;;-3271.80;77.20;;;;;;5021849;28;20038;-81
2024/01/10 06:56:18;;;;;;;21.38;12.60;;;-3271.80;77.10;;;;;;5031016;28;20025;-85
2024/01/10 06:58:44;;;;;;;17.23;10.07;;;-3271.70;77.10;;;;;;5020581;28;20080;-79
2024/01/10 07:01:13;;;;;;;16.02;9.80;;;-3271.70;77.10;;;;;;5041405;28;20022;-78
2024/01/10 07:03:42;;;;;;;17.23;10.45;;;-3271.70;77.10;;;;;;5045735;28;20044;-80
2024/01/10 07:06:08;;;;;;;19.17;11.30;;;-3271.80;77.10;;;;;;5045724;28;20013;-77
2024/01/10 07:08:33;;;;;;;15.90;9.45;;;-3271.80;77.00;;;;;;5032247;28;20037;-83
2024/01/10 07:10:59;;;;;;;17.67;9.90;;;-3271.80;77.00;;;;;;5026817;28;20436;-85
2024/01/10 07:13:24;;;;;;;18.17;9.68;;;-3271.70;77.00;;;;;;5015547;28;20061;-82
2024/01/10 07:15:53;;;;;;;17.20;10.25;;;-3271.70;76.80;;;;;;5015075;28;20032;-85
2024/01/10 07:18:19;;;;;;;16.55;10.18;;;-3271.70;76.80;;;;;;5015379;28;20030;-86
2024/01/10 07:20:44;;;;;;;18.25;10.52;;;-3271.70;76.90;;;;;;5020306;28;20481;-85
2024/01/10 07:23:10;;;;;;;18.17;10.00;;;-3271.70;76.90;;;;;;5010316;28;20490;-81
2024/01/10 07:25:37;;;;;;;17.20;10.40;;;-3271.70;77.00;;;;;;5020767;28;20054;-84
2024/01/10 07:28:03;;;;;;;19.45;10.90;;;-3271.70;76.90;;;;;;5016281;28;20417;-84
2024/01/10 07:30:32;;;;;;;18.52;10.43;;;-3271.70;76.80;;;;;;5018994;28;20186;-82
2024/01/10 07:32:58;;;;;;;16.00;9.55;;;-3271.70;76.70;;;;;;5038817;28;20044;-80
2024/01/10 07:35:24;;;;;;;19.73;11.35;;;-3271.70;76.70;;;;;;5039804;28;20048;-85
2024/01/10 07:37:49;;;;;;;16.83;9.40;;;-3271.70;76.50;;;;;;5028725;28;20577;-82
2024/01/10 07:40:16;;;;;;;18.30;9.90;;;-3271.70;76.60;;;;;;5017714;28;20021;-84
2024/01/10 07:42:43;;;;;;;18.40;10.30;;;-3271.70;76.50;;;;;;5021060;28;20038;-85
2024/01/10 07:45:09;;;;;;;16.88;10.50;;;-3271.80;76.50;;;;;;5021341;28;20021;-76
2024/01/10 07:47:38;;;;;;;15.82;8.73;;;-3271.70;76.50;;;;;;5019830;28;20029;-76
2024/01/10 07:50:07;;;;;;;16.60;9.50;;;-3271.80;76.60;;;;;;5015975;28;20083;-75
2024/01/10 07:52:34;;;;;;;17.38;9.13;;;-3271.70;76.70;;;;;;5021827;28;20040;-76
2024/01/10 07:55:00;;;;;;;18.70;10.40;;;-3271.80;76.90;;;;;;5019839;28;20049;-76
2024/01/10 07:57:26;;;;;;;22.42;11.20;;;-3271.80;76.90;;;;;;5018732;28;20107;-76
2024/01/10 07:59:52;;;;;;;23.60;12.82;;;-3271.80;76.90;;;;;;5014748;28;20049;-76
2024/01/10 08:02:18;;;;;;;25.10;12.85;;;-3271.70;77.00;;;;;;5009082;28;20360;-76
2024/01/10 08:04:44;;;;;;;23.17;13.60;;;-3271.70;77.20;;;;;;5016488;28;20478;-75
2024/01/10 08:07:09;;;;;;;21.05;12.00;;;-3271.70;77.20;;;;;;5041501;28;20174;-75
2024/01/10 08:09:36;;;;;;;21.13;12.85;;;-3271.70;77.30;;;;;;5034378;28;20067;-75
2024/01/10 08:12:02;;;;;;;21.55;11.52;;;-3271.80;77.30;;;;;;5038817;28;20462;-75
2024/01/10 08:14:28;;;;;;;18.80;11.52;;;-3271.80;77.40;;;;;;5036440;28;20040;-76
2024/01/10 08:16:57;;;;;;;22.23;11.90;;;-3271.80;77.40;;;;;;5035189;28;20029;-76
2024/01/10 08:19:26;;;;;;;23.83;13.57;;;-3271.80;77.40;;;;;;5029668;28;20041;-75
2024/01/10 08:21:56;;;;;;;19.83;10.88;;;-3271.80;77.50;;;;;;5035487;28;20024;-75
2024/01/10 08:24:22;;;;;;;19.77;11.35;;;-3271.80;77.60;;;;;;5030531;28;20041;-75
2024/01/10 08:26:51;;;;;;;23.95;11.52;;;-3271.80;77.70;;;;;;5030508;28;20163;-75
2024/01/10 08:29:21;;;;;;;22.20;11.85;;;-3271.80;77.70;;;;;;5039142;28;20029;-75
2024/01/10 08:31:47;;;;;;;21.25;11.40;;;-3271.80;77.90;;;;;;5036202;28;20029;-75
2024/01/10 08:34:13;;;;;;;22.63;10.93;;;-3271.90;77.90;;;;;;5037877;28;20045;-76
2024/01/10 08:36:39;;;;;;;18.40;11.38;;;-3271.90;77.80;;;;;;5032252;28;20043;-75
2024/01/10 08:39:06;;;;;;;19.13;10.23;;;-3272.00;77.90;;;;;;5042244;28;20055;-75
2024/01/10 08:41:33;;;;;;;19.80;11.35;;;-3272.00;77.70;;;;;;5042497;28;20052;-75
2024/01/10 08:43:59;;;;;;;19.27;10.80;;;-3272.10;77.50;;;;;;5035713;28;20432;-75
2024/01/10 08:46:25;;;;;;;17.70;10.48;;;-3272.20;77.60;;;;;;5035098;28;20047;-76
2024/01/10 08:48:51;;;;;;;21.67;11.93;;;-3272.20;77.30;;;;;;5037815;28;20025;-75
2024/01/10 08:51:17;;;;;;;23.23;10.68;;;-3272.30;77.30;;;;;;5040243;28;20044;-75
2024/01/10 08:53:46;;;;;;;23.45;12.52;;;-3272.40;77.00;;;;;;5042911;28;20148;-75
2024/01/10 08:56:12;;;;;;;21.42;11.90;;;-3272.50;76.90;;;;;;5036613;28;20017;-76
2024/01/10 08:58:38;;;;;;;18.17;10.40;;;-3272.50;76.40;;;;;;5028131;28;20308;-74
2024/01/10 09:01:08;;;;;;;20.30;10.75;;;-3272.70;76.20;;;;;;5034395;28;20436;-74
2024/01/10 09:03:34;;;;;;;20.25;11.95;;;-3272.80;76.10;;;;;;5036159;28;20040;-74
2024/01/10 09:06:00;;;;;;;23.25;11.70;;;-3272.90;75.40;;;;;;5037768;28;20029;-75
2024/01/10 09:08:25;;;;;;;27.52;13.88;;;-3273.00;75.30;;;;;;5033818;28;20373;-74
2024/01/10 09:10:51;;;;;;;21.88;12.93;;;-3272.90;75.00;;;;;;5034745;28;20032;-74
2024/01/10 09:13:17;;;;;;;19.27;11.35;;;-3273.00;75.00;;;;;;5032063;28;20060;-74
2024/01/10 09:15:43;;;;;;;18.85;11.07;;;-3273.20;74.70;;;;;;5037541;28;20029;-75
2024/01/10 09:18:09;;;;;;;23.23;11.40;;;-3273.20;74.20;;;;;;5029707;28;20478;-74
2024/01/10 09:20:35;;;;;;;20.98;11.07;;;-3273.30;74.40;;;;;;5030220;28;20049;-75
2024/01/10 09:23:02;;;;;;;19.75;11.05;;;-3273.30;74.30;;;;;;5033536;28;20045;-74
2024/01/10 09:25:28;;;;;;;26.63;11.05;;;-3273.30;74.60;;;;;;5032267;28;20599;-74
2024/01/10 09:27:54;;;;;;;26.23;10.65;;;-3273.30;74.20;;;;;;5038655;28;20029;-75
2024/01/10 09:30:20;;;;;;;20.45;10.70;;;-3273.50;73.70;;;;;;5030121;28;20033;-75
2024/01/10 09:32:46;;;;;;;17.45;9.32;;;-3273.20;74.00;;;;;;5027358;28;20048;-75
2024/01/10 09:35:13;;;;;;;19.45;10.05;;;-3273.50;74.00;;;;;;5026929;28;20132;-76
2024/01/10 09:37:39;;;;;;;19.38;10.10;;;-3273.60;73.70;;;;;;5034674;28;20036;-74
2024/01/10 09:40:08;;;;;;;18.65;10.05;;;-3273.60;72.80;;;;;;5015098;28;20033;-75
2024/01/10 09:42:36;;;;;;;16.98;9.55;;;-3273.50;72.40;;;;;;5036834;28;20021;-75
2024/01/10 09:45:05;;;;;;;19.90;9.98;;;-3273.70;72.50;;;;;;5038202;28;20353;-75
2024/01/10 09:47:32;;;;;;;18.73;10.77;;;-3273.90;72.20;;;;;;5033199;28;20033;-75
2024/01/10 09:49:58;;;;;;;16.90;10.30;;;-3274.20;72.00;;;;;;5034381;28;20380;-74
2024/01/10 09:52:27;;;;;;;16.73;10.02;;;-3274.20;71.10;;;;;;5028393;28;20694;-74
2024/01/10 09:54:57;;;;;;;18.90;10.65;;;-3274.50;70.90;;;;;;5035331;28;20028;-74
2024/01/10 09:57:27;;;;;;;16.42;9.68;;;-3274.60;70.20;;;;;;5035268;28;20048;-74
2024/01/10 09:59:54;;;;;;;16.33;10.02;;;-3274.70;69.80;;;;;;5034440;28;20025;-75
2024/01/10 10:02:22;;;;;;;16.58;9.85;;;-3274.80;68.90;;;;;;5031794;28;20221;-76
2024/01/10 10:05:15;;;;;;;19.15;9.85;;;-3274.80;68.50;;;;;;5038833;28;20064;-74
2024/01/10 10:07:48;;;;;;;20.10;10.10;;;-3274.60;68.90;;;;;;5035062;28;20033;-76
2024/01/10 10:10:15;;;;;;;18.17;10.07;;;-3274.60;69.20;;;;;;5035216;28;20100;-76
2024/01/10 10:12:46;;;;;;;18.27;11.48;;;-3274.70;69.50;;;;;;5031385;28;20037;-75
2024/01/10 10:15:19;;;;;;;19.55;11.15;;;-3274.80;69.20;;;;;;5030718;28;20037;-75
2024/01/10 10:17:47;;;;;;;17.23;9.55;;;-3274.80;69.20;;;;;;5031625;28;20037;-75
2024/01/10 10:20:27;;;;;;;17.88;10.15;;;-3274.80;69.40;;;;;;5036997;28;20020;-75
2024/01/10 10:23:01;;;;;;;18.83;10.63;;;-3274.80;69.00;;;;;;5029396;28;20048;-75
2024/01/10 10:25:32;;;;;;;17.95;10.32;;;-3274.90;68.70;;;;;;5030902;28;20025;-75
2024/01/10 10:27:58;;;;;;;20.60;9.95;;;-3275.00;68.40;;;;;;5030731;28;20072;-75
2024/01/10 10:30:24;;;;;;;18.83;10.82;;;-3274.90;68.20;;;;;;5034549;28;20073;-76
2024/01/10 10:32:50;;;;;;;18.75;11.10;;;-3274.80;68.50;;;;;;5031974;28;20045;-75
2024/01/10 10:35:16;;;;;;;21.40;11.98;;;-3275.00;68.50;;;;;;5035273;28;20087;-75
2024/01/10 10:37:41;;;;;;;21.50;11.35;;;-3275.00;67.90;;;;;;5033737;28;20026;-76
2024/01/10 10:40:11;;;;;;;19.63;11.50;;;-3275.10;68.00;;;;;;5034715;28;20433;-75
2024/01/10 10:42:44;;;;;;;20.65;12.07;;;-3275.20;67.70;;;;;;5036620;28;20120;-76
2024/01/10 10:45:17;;;;;;;18.25;11.20;;;-3275.40;67.60;;;;;;5034010;28;20028;-75
2024/01/10 10:47:49;;;;;;;21.35;11.32;;;-3275.50;67.30;;;;;;5034746;28;20043;-77
2024/01/10 10:50:22;;;;;;;24.10;12.32;;;-3275.70;67.40;;;;;;5032618;28;20411;-74
2024/01/10 10:52:49;;;;;;;17.98;10.75;;;-3275.90;66.60;;;;;;5030909;28;20048;-75
2024/01/10 10:55:18;;;;;;;21.85;12.57;;;-3276.10;66.40;;;;;;5031249;28;20417;-75
2024/01/10 10:57:48;;;;;;;22.60;12.60;;;-3276.10;65.20;;;;;;5029096;28;20026;-75
2024/01/10 11:00:15;;;;;;;20.60;11.82;;;-3275.80;65.70;;;;;;5034822;28;20305;-75
2024/01/10 11:02:43;;;;;;;23.55;12.30;;;-3275.40;66.70;;;;;;5035499;28;20068;-75
2024/01/10 11:05:10;;;;;;;22.52;13.15;;;-3275.50;66.50;;;;;;5037715;28;20067;-75
2024/01/10 11:07:37;;;;;;;22.33;10.90;;;-3275.60;66.50;;;;;;5028820;28;20037;-75
2024/01/10 11:10:09;;;;;;;18.98;10.98;;;-3275.90;66.30;;;;;;5035499;28;20021;-75
2024/01/10 11:13:14;;;;;;;16.42;9.82;;;-3275.80;65.00;;;;;;5037037;28;20037;-74
2024/01/10 11:15:57;;;;;;;20.03;12.13;;;-3275.80;65.10;;;;;;5026908;28;20510;-76
2024/01/10 11:18:41;;;;;;;19.45;11.40;;;-3276.00;65.20;;;;;;5027248;28;20467;-75
2024/01/10 11:21:28;;;;;;;22.60;11.40;;;-3275.90;65.00;;;;;;5031273;28;20043;-75
2024/01/10 11:23:59;;;;;;;20.13;11.35;;;-3275.70;65.00;;;;;;5029937;28;20134;-74
2024/01/10 11:26:26;;;;;;;18.73;11.25;;;-3275.60;65.00;;;;;;5032035;28;20496;-75
2024/01/10 11:28:52;;;;;;;19.40;11.27;;;-3275.60;65.60;;;;;;5026208;28;20032;-75
2024/01/10 11:31:31;;;;;;;20.27;11.27;;;-3275.90;65.50;;;;;;5030866;28;20021;-75
2024/01/10 11:34:00;;;;;;;17.67;11.10;;;-3276.20;65.20;;;;;;5036123;28;20087;-75
2024/01/10 11:36:27;;;;;;;21.02;12.77;;;-3276.10;64.10;;;;;;5026353;28;20028;-75
2024/01/10 11:38:56;;;;;;;22.23;12.45;;;-3276.00;64.10;;;;;;5031291;28;20029;-75
2024/01/10 11:41:40;;;;;;;19.10;11.77;;;-3276.00;63.80;;;;;;5027450;28;20068;-74
2024/01/10 11:44:13;;;;;;;22.88;11.90;;;-3276.10;63.80;;;;;;5036541;28;20036;-74
2024/01/10 11:46:47;;;;;;;22.05;12.40;;;-3276.10;63.90;;;;;;5032652;28;20128;-74
2024/01/10 11:49:17;;;;;;;22.30;13.23;;;-3276.20;63.50;;;;;;5035479;28;20144;-75
2024/01/10 11:51:44;;;;;;;18.73;10.85;;;-3276.10;63.90;;;;;;5033474;28;20333;-75
2024/01/10 11:54:10;;;;;;;18.80;11.05;;;-3276.30;63.30;;;;;;5034104;28;20069;-74
2024/01/10 11:56:44;;;;;;;19.08;11.02;;;-3276.20;62.60;;;;;;5031222;28;20254;-74
2024/01/10 11:59:16;;;;;;;19.58;11.23;;;-3276.20;62.80;;;;;;5027964;28;20029;-74
2024/01/10 12:01:42;;;;;;;19.40;11.23;;;-3276.50;63.20;;;;;;5030344;28;20021;-74
2024/01/10 12:04:09;;;;;;;25.40;14.65;;;0.00;62.40;;;;;;5030777;28;20063;-74